Time;durP1;ratioP1;P1;durP2;ratioP2;P2;SDS_P1;SDS_P2;PMS_P1;PMS_P2;Temp;Humidity;BMP_temperature;BMP_pressure;BME280_temperature;BME280_humidity;BME280_pressure;Samples;Min_cycle;Max_cycle;Signal;HPM_P1;HPM_P2
2022/03/13 00:02:01;;;;;;;21.38;13.90;;;;;;;;;;5010056;28;20062;-85
2022/03/13 00:04:27;;;;;;;20.48;13.95;;;;;;;;;;5008485;28;20547;-85
2022/03/13 00:06:56;;;;;;;21.67;14.52;;;;;;;;;;5008054;28;20041;-85
2022/03/13 00:09:22;;;;;;;21.83;14.73;;;;;;;;;;5008510;28;20117;-84
2022/03/13 00:11:53;;;;;;;22.15;14.73;;;;;;;;;;5009020;28;20435;-84
2022/03/13 00:14:25;;;;;;;22.63;14.00;;;;;;;;;;5008397;28;20117;-84
2022/03/13 00:16:54;;;;;;;22.88;14.88;;;;;;;;;;4993909;28;20037;-84
2022/03/13 00:19:21;;;;;;;22.55;13.77;;;;;;;;;;4992271;28;20050;-85
2022/03/13 00:21:51;;;;;;;21.83;13.98;;;;;;;;;;5011254;28;20073;-85
2022/03/13 00:24:20;;;;;;;23.27;14.07;;;;;;;;;;5004168;28;20038;-85
2022/03/13 00:26:54;;;;;;;24.00;14.88;;;;;;;;;;4991529;28;20049;-85
2022/03/13 00:29:21;;;;;;;22.65;14.57;;;;;;;;;;5008452;28;20046;-85
2022/03/13 00:31:47;;;;;;;19.73;13.52;;;;;;;;;;5008482;28;20503;-85
2022/03/13 00:34:14;;;;;;;22.35;14.05;;;;;;;;;;4989539;28;20044;-85
2022/03/13 00:36:40;;;;;;;21.23;14.50;;;;;;;;;;5006294;28;20042;-84
2022/03/13 00:39:06;;;;;;;24.80;14.15;;;;;;;;;;5007050;28;20042;-85
2022/03/13 00:41:33;;;;;;;20.73;13.85;;;;;;;;;;5006734;28;20049;-85
2022/03/13 00:43:59;;;;;;;23.10;15.15;;;;;;;;;;5005541;28;20061;-85
2022/03/13 00:46:25;;;;;;;20.58;13.90;;;;;;;;;;5005584;28;20030;-85
2022/03/13 00:48:51;;;;;;;21.15;14.73;;;;;;;;;;4989115;28;20404;-85
2022/03/13 00:51:17;;;;;;;22.42;14.95;;;;;;;;;;5003703;28;20120;-85
2022/03/13 00:53:44;;;;;;;22.63;14.57;;;;;;;;;;4975924;28;20373;-84
2022/03/13 00:56:10;;;;;;;21.65;14.23;;;;;;;;;;5004392;28;20054;-84
2022/03/13 00:58:40;;;;;;;23.25;15.43;;;;;;;;;;5004851;28;20061;-85
2022/03/13 01:01:07;;;;;;;21.13;14.23;;;;;;;;;;4987125;28;20045;-84
2022/03/13 01:03:36;;;;;;;22.63;14.80;;;;;;;;;;5004365;28;20057;-84
2022/03/13 01:06:06;;;;;;;21.50;14.43;;;;;;;;;;5003525;28;20038;-84
2022/03/13 01:08:33;;;;;;;22.75;14.52;;;;;;;;;;5006187;28;20038;-84
2022/03/13 01:11:00;;;;;;;20.73;14.02;;;;;;;;;;5007615;28;20496;-84
2022/03/13 01:13:27;;;;;;;21.30;14.82;;;;;;;;;;5007640;28;20046;-84
2022/03/13 01:16:00;;;;;;;24.05;14.98;;;;;;;;;;4985652;28;20100;-85
2022/03/13 01:18:26;;;;;;;23.83;14.88;;;;;;;;;;5006631;28;20147;-84
2022/03/13 01:20:52;;;;;;;19.83;14.00;;;;;;;;;;5009059;28;20045;-85
2022/03/13 01:23:20;;;;;;;22.73;15.10;;;;;;;;;;4972103;28;20037;-85
2022/03/13 01:26:06;;;;;;;21.73;15.00;;;;;;;;;;5005058;28;20104;-84
2022/03/13 01:28:32;;;;;;;22.15;14.30;;;;;;;;;;5001043;28;20392;-84
2022/03/13 01:30:59;;;;;;;22.27;14.70;;;;;;;;;;4992135;28;20395;-84
2022/03/13 01:33:25;;;;;;;21.23;14.65;;;;;;;;;;5008231;28;20057;-85
2022/03/13 01:35:51;;;;;;;24.60;14.93;;;;;;;;;;5007354;28;20077;-85
2022/03/13 01:38:17;;;;;;;25.38;15.27;;;;;;;;;;4989391;28;20042;-85
2022/03/13 01:40:44;;;;;;;22.35;14.20;;;;;;;;;;5005245;28;20042;-84
2022/03/13 01:43:10;;;;;;;22.42;14.80;;;;;;;;;;5008228;28;20049;-85
2022/03/13 01:45:37;;;;;;;22.42;15.43;;;;;;;;;;4992207;28;20125;-84
2022/03/13 01:48:03;;;;;;;22.58;14.90;;;;;;;;;;4989277;28;20050;-85
2022/03/13 01:50:30;;;;;;;22.77;15.32;;;;;;;;;;5008280;28;20049;-84
2022/03/13 01:52:56;;;;;;;23.00;15.70;;;;;;;;;;5009066;28;20041;-84
2022/03/13 01:55:22;;;;;;;23.35;15.00;;;;;;;;;;4969456;28;20042;-84
2022/03/13 01:57:49;;;;;;;22.25;15.90;;;;;;;;;;5006359;28;20391;-85
2022/03/13 02:00:17;;;;;;;26.42;15.93;;;;;;;;;;4995486;28;20038;-84
2022/03/13 02:02:44;;;;;;;23.38;15.40;;;;;;;;;;4993287;23;20146;-85
2022/03/13 02:05:19;;;;;;;21.00;14.90;;;;;;;;;;5004930;28;20034;-85
2022/03/13 02:07:45;;;;;;;26.45;15.55;;;;;;;;;;4986760;28;20034;-85
2022/03/13 02:10:11;;;;;;;22.52;14.85;;;;;;;;;;4984404;28;20050;-85
2022/03/13 02:12:40;;;;;;;23.92;15.30;;;;;;;;;;4990592;28;20047;-85
2022/03/13 02:15:06;;;;;;;24.10;15.68;;;;;;;;;;4986169;28;20050;-85
2022/03/13 02:17:36;;;;;;;22.42;14.82;;;;;;;;;;4969854;28;20453;-85
2022/03/13 02:20:02;;;;;;;22.65;15.45;;;;;;;;;;4973800;28;20039;-84
2022/03/13 02:22:28;;;;;;;24.40;15.52;;;;;;;;;;4970056;28;20053;-84
2022/03/13 02:24:55;;;;;;;23.83;14.82;;;;;;;;;;4971566;28;20049;-84
2022/03/13 02:27:26;;;;;;;22.92;15.20;;;;;;;;;;4966852;28;20062;-84
2022/03/13 02:29:52;;;;;;;23.67;14.73;;;;;;;;;;4973849;28;20050;-84
2022/03/13 02:32:19;;;;;;;22.23;14.18;;;;;;;;;;4992504;28;20544;-84
2022/03/13 02:34:45;;;;;;;24.38;15.23;;;;;;;;;;4992311;28;20049;-85
2022/03/13 02:37:44;;;;;;;26.65;16.00;;;;;;;;;;4971346;28;20074;-85
2022/03/13 02:40:26;;;;;;;23.20;14.52;;;;;;;;;;4957624;28;20805;-85
2022/03/13 02:42:52;;;;;;;22.23;14.70;;;;;;;;;;4989194;28;20081;-85
2022/03/13 02:45:29;;;;;;;22.30;14.82;;;;;;;;;;4992218;28;20088;-85
2022/03/13 02:47:55;;;;;;;24.13;14.82;;;;;;;;;;4986685;28;20042;-85
2022/03/13 02:50:22;;;;;;;22.80;14.70;;;;;;;;;;4991540;28;20038;-85
2022/03/13 02:52:48;;;;;;;23.35;14.70;;;;;;;;;;4990811;28;21857;-84
2022/03/13 02:55:15;;;;;;;22.73;14.55;;;;;;;;;;4971173;28;20039;-84
2022/03/13 02:57:41;;;;;;;24.10;14.68;;;;;;;;;;4971034;28;20038;-84
2022/03/13 03:00:08;;;;;;;22.45;14.75;;;;;;;;;;5002599;28;20042;-84
2022/03/13 03:02:35;;;;;;;22.27;14.70;;;;;;;;;;4991417;28;20073;-84
2022/03/13 03:05:06;;;;;;;20.83;14.60;;;;;;;;;;5003968;28;20065;-84
2022/03/13 03:07:32;;;;;;;24.23;15.15;;;;;;;;;;4974064;28;20035;-84
2022/03/13 03:09:58;;;;;;;22.10;15.10;;;;;;;;;;4991421;28;20504;-85
2022/03/13 03:12:25;;;;;;;24.00;15.32;;;;;;;;;;4983031;28;20511;-85
2022/03/13 03:14:51;;;;;;;21.85;15.20;;;;;;;;;;4986387;28;20042;-85
2022/03/13 03:17:17;;;;;;;21.73;14.93;;;;;;;;;;4968450;28;20441;-85
2022/03/13 03:19:43;;;;;;;21.42;14.35;;;;;;;;;;4987599;28;20050;-85
2022/03/13 03:22:09;;;;;;;21.75;14.40;;;;;;;;;;4983515;28;20296;-85
2022/03/13 03:24:35;;;;;;;22.38;13.95;;;;;;;;;;4998386;28;20077;-84
2022/03/13 03:27:01;;;;;;;20.70;13.88;;;;;;;;;;4968509;28;20035;-84
2022/03/13 03:29:29;;;;;;;21.48;13.60;;;;;;;;;;4989197;28;20043;-84
2022/03/13 03:31:56;;;;;;;20.77;14.07;;;;;;;;;;4966447;28;20078;-84
2022/03/13 03:34:24;;;;;;;20.15;13.60;;;;;;;;;;4968573;28;20120;-84
2022/03/13 03:36:54;;;;;;;24.38;14.57;;;;;;;;;;4984294;28;20042;-84
2022/03/13 03:39:21;;;;;;;22.70;13.70;;;;;;;;;;4966592;28;20039;-84
2022/03/13 03:41:48;;;;;;;21.50;13.32;;;;;;;;;;4982106;28;20043;-84
2022/03/13 03:44:14;;;;;;;21.10;13.52;;;;;;;;;;4982675;28;20169;-84
2022/03/13 03:46:42;;;;;;;20.80;14.35;;;;;;;;;;4997307;28;20086;-85
2022/03/13 03:49:08;;;;;;;22.38;13.63;;;;;;;;;;4981739;28;20043;-84
2022/03/13 03:51:34;;;;;;;22.55;14.07;;;;;;;;;;4957818;28;20054;-85
2022/03/13 03:54:01;;;;;;;22.92;13.75;;;;;;;;;;4965660;28;20412;-84
2022/03/13 03:56:28;;;;;;;20.83;13.27;;;;;;;;;;4983116;28;20049;-84
2022/03/13 03:58:54;;;;;;;21.08;13.35;;;;;;;;;;4984095;28;20117;-84
2022/03/13 04:01:20;;;;;;;21.95;13.50;;;;;;;;;;4984072;28;20072;-84
2022/03/13 04:03:46;;;;;;;19.65;12.95;;;;;;;;;;4950749;28;20051;-84
2022/03/13 04:06:13;;;;;;;21.23;13.40;;;;;;;;;;4980949;28;20030;-84
2022/03/13 04:08:39;;;;;;;21.65;13.30;;;;;;;;;;4983705;28;20049;-84
2022/03/13 04:11:08;;;;;;;21.70;14.07;;;;;;;;;;4968497;28;20505;-85
2022/03/13 04:13:38;;;;;;;19.55;13.20;;;;;;;;;;4971838;28;20510;-84
2022/03/13 04:16:06;;;;;;;20.75;13.70;;;;;;;;;;4970629;28;20046;-85
2022/03/13 04:18:32;;;;;;;22.17;13.80;;;;;;;;;;4966910;28;20042;-84
2022/03/13 04:20:59;;;;;;;18.83;12.45;;;;;;;;;;4969282;28;20089;-85
2022/03/13 04:23:26;;;;;;;20.17;13.05;;;;;;;;;;4972401;28;20113;-84
2022/03/13 04:25:52;;;;;;;19.52;13.40;;;;;;;;;;4955589;28;20129;-85
2022/03/13 04:28:18;;;;;;;18.63;12.88;;;;;;;;;;4972542;28;20043;-84
2022/03/13 04:30:47;;;;;;;20.45;12.98;;;;;;;;;;4969795;28;20100;-84
2022/03/13 04:33:16;;;;;;;21.30;14.00;;;;;;;;;;4989724;28;20069;-84
2022/03/13 04:35:42;;;;;;;22.10;12.90;;;;;;;;;;4973322;28;20050;-84
2022/03/13 04:38:08;;;;;;;21.83;13.38;;;;;;;;;;4957063;28;20054;-84
2022/03/13 04:40:34;;;;;;;20.20;13.27;;;;;;;;;;4971257;28;20051;-84
2022/03/13 04:43:02;;;;;;;18.88;12.32;;;;;;;;;;4971940;28;20508;-84
2022/03/13 04:45:29;;;;;;;21.77;13.32;;;;;;;;;;4971134;28;20035;-84
2022/03/13 04:47:55;;;;;;;22.40;14.65;;;;;;;;;;4954381;28;20034;-84
2022/03/13 04:50:21;;;;;;;23.92;14.60;;;;;;;;;;4972254;28;20507;-84
2022/03/13 04:52:47;;;;;;;20.30;13.68;;;;;;;;;;4952784;28;20042;-84
2022/03/13 04:55:14;;;;;;;23.13;14.85;;;;;;;;;;4972244;28;20066;-83
2022/03/13 04:57:40;;;;;;;23.13;14.02;;;;;;;;;;4972632;28;20136;-84
2022/03/13 05:00:06;;;;;;;20.80;14.50;;;;;;;;;;4973456;28;20117;-84
2022/03/13 05:02:33;;;;;;;24.88;14.98;;;;;;;;;;4978111;28;20067;-83
2022/03/13 05:04:59;;;;;;;22.20;15.23;;;;;;;;;;4970697;28;20459;-84
2022/03/13 05:07:25;;;;;;;22.65;15.90;;;;;;;;;;4990102;28;20030;-83
2022/03/13 05:09:51;;;;;;;22.67;14.82;;;;;;;;;;5000678;28;20069;-84
2022/03/13 05:12:24;;;;;;;24.02;15.38;;;;;;;;;;4968452;28;20042;-83
2022/03/13 05:14:50;;;;;;;26.23;16.10;;;;;;;;;;4983454;28;20050;-84
2022/03/13 05:17:16;;;;;;;23.05;16.17;;;;;;;;;;4987377;28;20073;-84
2022/03/13 05:19:42;;;;;;;23.17;14.77;;;;;;;;;;4988583;28;20042;-84
2022/03/13 05:22:08;;;;;;;26.05;15.55;;;;;;;;;;4988901;28;20439;-84
2022/03/13 05:24:34;;;;;;;23.25;15.93;;;;;;;;;;4989571;28;20452;-84
2022/03/13 05:27:00;;;;;;;23.50;16.15;;;;;;;;;;4988787;28;20168;-84
2022/03/13 05:29:27;;;;;;;22.58;15.85;;;;;;;;;;4984306;28;20038;-84
2022/03/13 05:31:53;;;;;;;24.35;16.40;;;;;;;;;;5000799;28;20034;-84
2022/03/13 05:34:19;;;;;;;24.67;16.25;;;;;;;;;;4959550;28;20042;-84
2022/03/13 05:36:46;;;;;;;24.75;15.77;;;;;;;;;;5001047;28;20046;-84
2022/03/13 05:39:13;;;;;;;23.67;15.77;;;;;;;;;;4975610;28;20050;-84
2022/03/13 05:41:40;;;;;;;26.27;16.92;;;;;;;;;;4999783;28;20118;-84
2022/03/13 05:44:09;;;;;;;24.40;16.17;;;;;;;;;;4989668;28;20043;-84
2022/03/13 05:46:36;;;;;;;23.02;15.98;;;;;;;;;;4980979;28;20110;-84
2022/03/13 05:49:02;;;;;;;23.80;15.48;;;;;;;;;;4999601;28;20077;-83
2022/03/13 05:51:32;;;;;;;23.40;15.90;;;;;;;;;;4970574;28;20046;-83
2022/03/13 05:53:58;;;;;;;22.90;15.50;;;;;;;;;;4967830;28;20047;-84
2022/03/13 05:56:24;;;;;;;23.33;15.27;;;;;;;;;;5002819;28;20623;-84
2022/03/13 05:58:50;;;;;;;24.08;15.85;;;;;;;;;;4988551;28;20743;-83
2022/03/13 06:01:16;;;;;;;24.55;16.23;;;;;;;;;;4959110;28;20038;-84
2022/03/13 06:03:43;;;;;;;23.83;16.20;;;;;;;;;;4937124;28;20055;-83
2022/03/13 06:06:09;;;;;;;26.02;16.05;;;;;;;;;;4953191;28;20047;-84
2022/03/13 06:08:37;;;;;;;23.50;16.25;;;;;;;;;;4937931;28;20359;-83
2022/03/13 06:11:03;;;;;;;24.92;16.33;;;;;;;;;;4956981;28;20405;-84
2022/03/13 06:13:30;;;;;;;22.58;15.68;;;;;;;;;;4964527;28;20302;-83
2022/03/13 06:15:58;;;;;;;23.90;15.75;;;;;;;;;;4941508;28;20129;-83
2022/03/13 06:18:25;;;;;;;25.85;15.25;;;;;;;;;;4928361;28;20397;-83
2022/03/13 06:20:51;;;;;;;23.02;15.48;;;;;;;;;;4957960;28;20468;-83
2022/03/13 06:23:17;;;;;;;22.02;15.20;;;;;;;;;;4957986;28;20042;-83
2022/03/13 06:25:43;;;;;;;25.20;16.15;;;;;;;;;;4959736;28;20041;-84
2022/03/13 06:28:10;;;;;;;21.83;15.25;;;;;;;;;;4959288;28;20523;-84
2022/03/13 06:30:37;;;;;;;24.42;15.15;;;;;;;;;;4943168;28;20039;-84
2022/03/13 06:33:04;;;;;;;23.75;15.00;;;;;;;;;;4958299;28;20081;-83
2022/03/13 06:35:30;;;;;;;24.92;14.60;;;;;;;;;;4942381;28;20042;-84
2022/03/13 06:37:57;;;;;;;24.95;16.65;;;;;;;;;;4958852;28;20058;-83
2022/03/13 06:40:24;;;;;;;22.38;14.95;;;;;;;;;;4943072;28;20051;-83
2022/03/13 06:42:52;;;;;;;23.63;15.27;;;;;;;;;;4940941;28;20050;-84
2022/03/13 06:45:18;;;;;;;24.20;14.93;;;;;;;;;;4959566;28;20163;-84
2022/03/13 06:47:46;;;;;;;24.48;15.25;;;;;;;;;;4960047;28;20062;-84
2022/03/13 06:50:14;;;;;;;27.15;15.25;;;;;;;;;;4956807;28;20042;-84
2022/03/13 06:52:40;;;;;;;24.42;15.60;;;;;;;;;;4958850;28;20120;-84
2022/03/13 06:55:06;;;;;;;22.90;15.88;;;;;;;;;;4943834;28;20049;-84
2022/03/13 06:57:32;;;;;;;22.00;15.10;;;;;;;;;;4942959;28;20097;-84
2022/03/13 06:59:59;;;;;;;23.83;15.63;;;;;;;;;;4940965;28;20129;-84
2022/03/13 07:02:25;;;;;;;23.23;14.88;;;;;;;;;;4970422;28;20133;-84
2022/03/13 07:04:51;;;;;;;24.83;15.57;;;;;;;;;;4972462;28;20050;-83
2022/03/13 07:07:17;;;;;;;22.77;15.02;;;;;;;;;;4975220;28;20030;-84
2022/03/13 07:09:43;;;;;;;23.92;15.60;;;;;;;;;;4958948;28;20129;-84
2022/03/13 07:12:11;;;;;;;22.27;15.00;;;;;;;;;;4972201;28;20069;-83
2022/03/13 07:14:38;;;;;;;22.27;14.80;;;;;;;;;;4990145;28;20082;-83
2022/03/13 07:17:04;;;;;;;22.05;14.77;;;;;;;;;;4972582;28;20487;-83
2022/03/13 07:19:30;;;;;;;22.75;15.23;;;;;;;;;;4985140;28;20133;-83
2022/03/13 07:21:56;;;;;;;25.02;15.20;;;;;;;;;;4990596;28;20046;-84
2022/03/13 07:24:22;;;;;;;22.73;14.95;;;;;;;;;;4972004;28;20049;-84
2022/03/13 07:26:48;;;;;;;22.15;14.77;;;;;;;;;;4961623;28;20035;-84
2022/03/13 07:29:15;;;;;;;20.60;14.02;;;;;;;;;;4978681;28;20099;-83
2022/03/13 07:31:41;;;;;;;24.17;14.63;;;;;;;;;;4977856;28;20038;-84
2022/03/13 07:34:07;;;;;;;22.63;13.63;;;;;;;;;;4990095;28;20553;-84
2022/03/13 07:36:34;;;;;;;23.98;14.75;;;;;;;;;;4988934;28;20042;-84
2022/03/13 07:39:03;;;;;;;25.20;14.63;;;;;;;;;;4971597;28;20385;-84
2022/03/13 07:41:29;;;;;;;20.75;13.75;;;;;;;;;;5004738;28;20042;-84
2022/03/13 07:43:55;;;;;;;23.38;14.50;;;;;;;;;;4971229;28;20473;-84
2022/03/13 07:46:22;;;;;;;20.17;13.50;;;;;;;;;;4989286;28;20058;-84
2022/03/13 07:48:48;;;;;;;22.52;13.63;;;;;;;;;;4987265;28;20463;-84
2022/03/13 07:51:15;;;;;;;21.75;14.13;;;;;;;;;;4956522;28;20045;-85
2022/03/13 07:53:41;;;;;;;19.83;13.93;;;;;;;;;;4974132;28;20117;-84
2022/03/13 07:56:07;;;;;;;19.38;13.32;;;;;;;;;;4951174;28;20100;-84
2022/03/13 07:58:34;;;;;;;21.70;13.75;;;;;;;;;;4983479;28;20092;-84
2022/03/13 08:01:00;;;;;;;18.98;13.02;;;;;;;;;;4995986;28;20042;-84
2022/03/13 08:03:29;;;;;;;19.58;13.77;;;;;;;;;;4989089;28;20062;-84
2022/03/13 08:05:56;;;;;;;20.08;12.98;;;;;;;;;;4990261;28;20049;-85
2022/03/13 08:08:22;;;;;;;18.17;13.35;;;;;;;;;;4990655;28;20038;-84
2022/03/13 08:10:48;;;;;;;21.30;13.95;;;;;;;;;;4988065;28;20034;-84
2022/03/13 08:13:14;;;;;;;23.08;13.93;;;;;;;;;;4970614;28;20054;-84
2022/03/13 08:15:40;;;;;;;21.52;13.65;;;;;;;;;;4973596;28;20555;-84
2022/03/13 08:18:09;;;;;;;20.52;13.05;;;;;;;;;;4971183;28;20046;-84
2022/03/13 08:20:35;;;;;;;19.10;13.10;;;;;;;;;;4968701;28;20042;-84
2022/03/13 08:23:01;;;;;;;22.45;13.25;;;;;;;;;;4986206;28;20037;-84
2022/03/13 08:25:27;;;;;;;19.25;12.60;;;;;;;;;;4996927;28;20034;-83
2022/03/13 08:27:54;;;;;;;19.38;13.02;;;;;;;;;;4984107;28;20039;-83
2022/03/13 08:30:21;;;;;;;21.25;13.02;;;;;;;;;;4981557;28;20042;-84
2022/03/13 08:32:47;;;;;;;22.08;13.45;;;;;;;;;;4966303;28;20038;-84
2022/03/13 08:35:13;;;;;;;20.40;12.70;;;;;;;;;;4966224;28;20038;-84
2022/03/13 08:37:39;;;;;;;18.17;11.95;;;;;;;;;;4957836;28;20077;-83
2022/03/13 08:40:05;;;;;;;18.25;12.43;;;;;;;;;;5002048;28;20038;-83
2022/03/13 08:42:32;;;;;;;22.88;15.70;;;;;;;;;;4968780;28;20089;-84
2022/03/13 08:44:59;;;;;;;29.35;19.30;;;;;;;;;;4966512;28;20170;-84
2022/03/13 08:47:25;;;;;;;27.88;18.40;;;;;;;;;;4981635;28;20046;-83
2022/03/13 08:49:51;;;;;;;19.08;13.35;;;;;;;;;;4990065;28;20038;-84
2022/03/13 08:52:18;;;;;;;18.40;13.52;;;;;;;;;;4996146;28;20046;-84
2022/03/13 08:54:44;;;;;;;18.73;12.55;;;;;;;;;;4985755;28;20049;-84
2022/03/13 08:57:10;;;;;;;18.27;12.13;;;;;;;;;;4968446;28;20038;-84
2022/03/13 08:59:36;;;;;;;18.70;11.93;;;;;;;;;;4984883;28;20045;-85
2022/03/13 09:02:03;;;;;;;15.98;11.73;;;;;;;;;;4987804;28;20121;-84
2022/03/13 09:04:29;;;;;;;17.55;12.02;;;;;;;;;;4985118;28;20390;-84
2022/03/13 09:06:56;;;;;;;15.98;11.55;;;;;;;;;;4981830;28;20038;-84
2022/03/13 09:09:22;;;;;;;17.45;11.93;;;;;;;;;;4969082;28;20042;-84
2022/03/13 09:11:50;;;;;;;16.35;12.07;;;;;;;;;;4967956;28;20045;-85
2022/03/13 09:14:16;;;;;;;16.33;12.00;;;;;;;;;;4982718;28;20057;-84
2022/03/13 09:16:43;;;;;;;19.13;11.82;;;;;;;;;;4989807;28;20038;-85
2022/03/13 09:19:09;;;;;;;15.60;11.75;;;;;;;;;;4986116;28;20070;-85
2022/03/13 09:21:38;;;;;;;17.23;11.48;;;;;;;;;;4983276;28;20034;-84
2022/03/13 09:24:08;;;;;;;19.23;12.75;;;;;;;;;;4969640;28;20079;-85
2022/03/13 09:26:35;;;;;;;16.20;11.60;;;;;;;;;;4997414;28;20077;-85
2022/03/13 09:29:01;;;;;;;15.15;11.02;;;;;;;;;;4980311;28;20043;-84
2022/03/13 09:31:28;;;;;;;18.42;12.20;;;;;;;;;;4994207;28;20425;-85
2022/03/13 09:33:54;;;;;;;15.75;12.00;;;;;;;;;;4995178;28;20046;-85
2022/03/13 09:36:20;;;;;;;17.23;11.43;;;;;;;;;;4965323;28;20042;-85
2022/03/13 09:38:46;;;;;;;16.70;11.32;;;;;;;;;;4951948;28;20049;-86
2022/03/13 09:41:12;;;;;;;15.68;11.55;;;;;;;;;;4997228;28;20038;-86
2022/03/13 09:43:39;;;;;;;16.65;11.57;;;;;;;;;;4996879;28;20421;-85
2022/03/13 09:46:05;;;;;;;16.52;12.32;;;;;;;;;;4980214;28;20097;-86
2022/03/13 09:48:35;;;;;;;16.05;12.20;;;;;;;;;;4997340;28;20034;-85
2022/03/13 09:51:04;;;;;;;17.45;11.77;;;;;;;;;;4982763;28;20046;-85
2022/03/13 09:53:30;;;;;;;18.17;11.85;;;;;;;;;;4978756;28;20043;-85
2022/03/13 09:55:57;;;;;;;15.70;11.27;;;;;;;;;;4981657;28;20038;-85
2022/03/13 09:58:23;;;;;;;16.40;11.77;;;;;;;;;;4978366;28;20034;-85
2022/03/13 10:00:49;;;;;;;14.90;11.95;;;;;;;;;;4983421;28;20436;-85
2022/03/13 10:03:15;;;;;;;15.63;11.85;;;;;;;;;;4964575;28;20394;-85
2022/03/13 10:05:42;;;;;;;14.07;11.55;;;;;;;;;;4977656;28;20096;-87
2022/03/13 10:08:08;;;;;;;14.23;11.82;;;;;;;;;;4980621;28;20031;-86
2022/03/13 10:10:42;;;;;;;13.68;11.52;;;;;;;;;;4967662;28;20046;-87
2022/03/13 10:13:08;;;;;;;14.95;11.10;;;;;;;;;;4966948;28;20035;-87
2022/03/13 10:15:42;;;;;;;14.02;11.50;;;;;;;;;;4978324;28;20039;-87
2022/03/13 10:18:18;;;;;;;17.27;12.68;;;;;;;;;;4979674;28;20465;-86
2022/03/13 10:20:48;;;;;;;16.80;12.25;;;;;;;;;;4965476;28;20051;-86
2022/03/13 10:23:19;;;;;;;18.10;13.27;;;;;;;;;;4979657;28;20089;-86
2022/03/13 10:25:47;;;;;;;15.15;12.15;;;;;;;;;;4984909;28;20081;-86
2022/03/13 10:28:18;;;;;;;15.57;12.13;;;;;;;;;;4965746;28;20035;-86
2022/03/13 10:30:45;;;;;;;14.38;12.20;;;;;;;;;;4983631;28;20493;-86
2022/03/13 10:33:11;;;;;;;14.68;12.07;;;;;;;;;;4981382;28;20051;-86
2022/03/13 10:35:38;;;;;;;15.20;12.93;;;;;;;;;;4987503;28;20069;-86
2022/03/13 10:38:13;;;;;;;16.02;12.02;;;;;;;;;;4991050;28;20100;-86
2022/03/13 10:40:39;;;;;;;17.50;12.50;;;;;;;;;;4985976;28;20039;-86
2022/03/13 10:43:06;;;;;;;14.57;12.27;;;;;;;;;;4991669;28;20038;-86
2022/03/13 10:45:43;;;;;;;16.05;13.00;;;;;;;;;;5000391;28;20050;-85
2022/03/13 10:48:14;;;;;;;14.80;12.15;;;;;;;;;;4980112;28;20038;-86
2022/03/13 10:50:47;;;;;;;16.42;12.88;;;;;;;;;;4970581;28;20049;-86
2022/03/13 10:53:14;;;;;;;17.10;12.82;;;;;;;;;;4972632;28;20081;-86
2022/03/13 10:55:43;;;;;;;15.20;11.70;;;;;;;;;;4969043;28;20468;-86
2022/03/13 10:58:10;;;;;;;17.42;13.45;;;;;;;;;;4980936;28;20061;-86
2022/03/13 11:00:36;;;;;;;17.10;12.98;;;;;;;;;;4996095;28;20061;-85
2022/03/13 11:03:12;;;;;;;16.15;12.65;;;;;;;;;;4956799;28;20053;-85
2022/03/13 11:05:39;;;;;;;16.55;12.88;;;;;;;;;;5005772;28;20054;-86
2022/03/13 11:08:07;;;;;;;16.70;12.50;;;;;;;;;;4989660;28;20161;-86
2022/03/13 11:10:35;;;;;;;15.15;12.68;;;;;;;;;;4984538;28;20046;-86
2022/03/13 11:13:02;;;;;;;16.73;12.93;;;;;;;;;;4991458;28;20480;-87
2022/03/13 11:15:29;;;;;;;15.80;12.95;;;;;;;;;;4975511;28;20039;-87
2022/03/13 11:17:56;;;;;;;15.77;12.07;;;;;;;;;;4988423;28;20072;-87
2022/03/13 11:20:23;;;;;;;15.85;12.85;;;;;;;;;;4991079;28;20038;-87
2022/03/13 11:22:49;;;;;;;16.35;13.35;;;;;;;;;;4990996;28;20046;-87
2022/03/13 11:25:16;;;;;;;17.67;13.32;;;;;;;;;;4956208;28;20042;-87
2022/03/13 11:27:43;;;;;;;18.02;12.77;;;;;;;;;;4987193;28;20049;-89
2022/03/13 11:30:13;;;;;;;17.52;13.55;;;;;;;;;;4968273;28;20121;-85
2022/03/13 11:32:46;;;;;;;16.88;13.27;;;;;;;;;;4968551;28;20035;-91
2022/03/13 11:35:13;;;;;;;16.85;13.20;;;21.60;57.20;;;;;;4972010;28;20042;-88
2022/03/13 11:38:04;;;;;;;17.90;13.55;;;21.40;57.80;;;;;;4988853;28;20045;-87
2022/03/13 11:40:34;;;;;;;16.55;13.35;;;20.10;58.30;;;;;;4977350;28;20043;-93
2022/03/13 11:43:08;;;;;;;18.65;13.63;;;19.40;61.00;;;;;;4972568;28;20046;-88
2022/03/13 11:45:39;;;;;;;17.92;13.52;;;18.80;62.80;;;;;;4980283;28;20042;-90
2022/03/13 11:48:08;;;;;;;17.58;13.50;;;;;;;;;;4988483;28;20452;-86
2022/03/13 11:50:51;;;;;;;19.85;13.27;;;19.40;64.10;;;;;;4991398;28;20065;-87
2022/03/13 11:53:21;;;;;;;16.58;13.13;;;20.70;61.40;;;;;;4980200;28;20042;-87
2022/03/13 11:56:02;;;;;;;16.95;13.63;;;21.50;60.50;;;;;;4993233;28;20050;-86
2022/03/13 11:58:45;;;;;;;16.75;12.75;;;22.20;58.30;;;;;;4981290;28;20125;-86
2022/03/13 12:01:31;;;;;;;17.30;13.15;;;22.80;59.20;;;;;;4969217;28;20046;-87
2022/03/13 12:04:15;;;;;;;18.10;13.98;;;22.90;58.30;;;;;;4988632;28;20053;-87
2022/03/13 12:07:23;;;;;;;23.83;15.98;;;23.00;56.80;;;;;;4992857;28;20039;-87
2022/03/13 12:09:49;;;;;;;17.20;12.80;;;20.70;59.40;;;;;;4991839;28;20121;-87
2022/03/13 12:12:17;;;;;;;17.98;12.98;;;20.60;59.60;;;;;;4982988;28;20133;-87
2022/03/13 12:15:02;;;;;;;23.85;16.00;;;19.90;61.00;;;;;;4968348;28;20093;-87
2022/03/13 12:17:30;;;;;;;21.75;15.07;;;19.90;62.50;;;;;;4970338;28;20555;-87
2022/03/13 12:19:58;;;;;;;16.20;13.30;;;19.70;61.00;;;;;;4964782;28;20489;-87
2022/03/13 12:22:30;;;;;;;15.77;12.75;;;19.80;64.00;;;;;;4987012;28;20043;-86
2022/03/13 12:24:59;;;;;;;14.57;10.70;;;20.70;61.90;;;;;;4988952;28;20030;-86
2022/03/13 12:27:25;;;;;;;14.13;10.18;;;20.80;61.30;;;;;;4979740;28;20069;-86
2022/03/13 12:29:56;;;;;;;13.82;10.70;;;20.50;62.90;;;;;;4969922;28;20069;-86
2022/03/13 12:32:34;;;;;;;15.27;11.20;;;19.90;62.80;;;;;;4971521;28;20053;-86
2022/03/13 12:35:04;;;;;;;16.10;11.55;;;19.90;62.60;;;;;;4984631;28;20053;-86
2022/03/13 12:37:29;;;;;;;14.82;10.35;;;19.40;62.80;;;;;;4971147;28;20361;-86
2022/03/13 12:40:00;;;;;;;14.13;10.35;;;18.90;64.10;;;;;;4986041;28;20105;-86
2022/03/13 12:42:30;;;;;;;15.20;10.07;;;18.50;65.00;;;;;;4985178;28;20096;-85
2022/03/13 12:45:11;;;;;;;14.23;9.90;;;18.30;64.70;;;;;;4967588;28;20081;-86
2022/03/13 12:47:46;;;;;;;13.13;9.55;;;18.90;66.00;;;;;;4986463;28;20034;-86
2022/03/13 12:50:13;;;;;;;12.03;9.33;;;19.30;65.70;;;;;;4998059;28;20552;-86
2022/03/13 12:52:43;;;;;;;14.18;10.80;;;19.90;64.70;;;;;;4970067;28;20416;-86
2022/03/13 12:55:12;;;;;;;14.35;10.68;;;20.60;63.10;;;;;;4997679;28;20129;-86
2022/03/13 12:57:38;;;;;;;16.23;10.88;;;21.00;63.60;;;;;;4984468;28;20092;-86
2022/03/13 13:00:06;;;;;;;15.35;10.68;;;21.60;61.20;;;;;;4988434;28;20044;-86
2022/03/13 13:02:34;;;;;;;13.68;10.20;;;21.40;60.70;;;;;;4958277;28;20089;-86
2022/03/13 13:05:04;;;;;;;13.07;10.02;;;21.20;60.60;;;;;;4984576;28;20125;-86
2022/03/13 13:07:31;;;;;;;12.77;9.50;;;21.10;60.90;;;;;;4969383;28;20050;-86
2022/03/13 13:09:59;;;;;;;12.15;9.40;;;21.40;60.00;;;;;;4985517;28;20035;-86
2022/03/13 13:12:32;;;;;;;15.13;9.90;;;21.80;61.40;;;;;;4988257;28;20049;-86
2022/03/13 13:15:01;;;;;;;12.82;9.95;;;22.30;60.20;;;;;;4986572;28;20569;-86
2022/03/13 13:17:29;;;;;;;16.00;11.20;;;22.10;59.90;;;;;;4985689;28;20066;-85
2022/03/13 13:20:17;;;;;;;18.40;11.55;;;21.80;59.50;;;;;;4987348;28;20069;-86
2022/03/13 13:22:44;;;;;;;16.58;11.52;;;21.90;60.20;;;;;;4983097;28;20034;-86
2022/03/13 13:25:18;;;;;;;13.57;10.80;;;21.50;60.30;;;;;;4984928;28;20125;-85
2022/03/13 13:27:46;;;;;;;14.15;10.80;;;21.30;60.90;;;;;;4987905;28;20066;-85
2022/03/13 13:30:24;;;;;;;14.80;10.45;;;20.90;61.30;;;;;;4983761;28;20046;-85
2022/03/13 13:33:01;;;;;;;15.45;11.43;;;20.40;61.80;;;;;;4973257;28;20065;-85
2022/03/13 13:35:31;;;;;;;14.27;9.80;;;20.30;62.00;;;;;;4985730;28;20042;-85
2022/03/13 13:38:05;;;;;;;14.18;9.70;;;19.70;61.40;;;;;;4984134;28;20038;-85
2022/03/13 13:40:34;;;;;;;15.32;10.75;;;19.70;62.30;;;;;;4987889;28;20046;-87
2022/03/13 13:43:01;;;;;;;16.83;10.02;;;19.10;63.30;;;;;;4985436;28;20500;-86
2022/03/13 13:45:27;;;;;;;15.45;10.75;;;19.00;64.20;;;;;;4983460;28;20061;-85
2022/03/13 13:48:11;;;;;;;13.52;10.73;;;18.80;64.20;;;;;;4986708;28;20469;-86
2022/03/13 13:50:37;;;;;;;13.45;10.75;;;18.40;65.00;;;;;;4967504;28;20529;-86
2022/03/13 13:53:03;;;;;;;16.38;11.82;;;18.20;64.40;;;;;;4986062;28;20176;-86
2022/03/13 13:55:37;;;;;;;15.13;11.45;;;18.10;65.10;;;;;;4971087;28;20042;-86
2022/03/13 13:58:22;;;;;;;17.77;11.80;;;18.10;66.90;;;;;;4984220;28;20484;-86
2022/03/13 14:00:48;;;;;;;16.20;11.30;;;18.00;64.90;;;;;;4969203;28;20035;-85
2022/03/13 14:03:14;;;;;;;15.32;11.15;;;17.80;65.70;;;;;;4971540;28;20184;-85